createdAt,value
2018-05-03T00:02:57.088Z,9.20
2018-05-03T00:07:30.294Z,9.10
2018-05-03T00:12:03.499Z,9.20
2018-05-03T00:16:36.669Z,9.10
2018-05-03T00:21:09.854Z,9.10
2018-05-03T00:25:43.043Z,9.10
2018-05-03T00:30:16.239Z,9.10
2018-05-03T00:34:49.428Z,9.00
2018-05-03T00:39:22.663Z,9.00
2018-05-03T00:43:55.837Z,9.10
2018-05-03T00:48:29.043Z,9.10
2018-05-03T00:53:02.232Z,9.00
2018-05-03T00:57:36.191Z,8.90
2018-05-03T01:02:09.395Z,8.90
2018-05-03T01:06:42.560Z,8.90
2018-05-03T01:11:16.519Z,8.70
2018-05-03T01:15:49.702Z,8.70
2018-05-03T01:20:23.654Z,8.70
2018-05-03T01:24:56.837Z,8.60
2018-05-03T01:29:30.815Z,8.60
2018-05-03T01:34:03.993Z,8.60
2018-05-03T01:38:37.182Z,8.60
2018-05-03T01:43:10.371Z,8.60
2018-05-03T01:47:44.322Z,8.50
2018-05-03T01:52:17.509Z,8.50
2018-05-03T01:56:51.451Z,8.40
2018-05-03T02:01:24.630Z,8.30
2018-05-03T02:05:58.580Z,8.20
2018-05-03T02:10:31.768Z,8.10
2018-05-03T02:15:05.730Z,8.00
2018-05-03T02:19:38.889Z,7.90
2018-05-03T02:24:12.842Z,8.00
2018-05-03T02:28:46.027Z,8.00
2018-05-03T02:33:19.970Z,7.90
2018-05-03T02:37:53.185Z,7.80
2018-05-03T02:42:26.380Z,7.80
2018-05-03T02:46:59.570Z,7.80
2018-05-03T02:51:33.503Z,7.70
2018-05-03T02:56:07.454Z,7.60
2018-05-03T03:00:58.220Z,7.60
2018-05-03T03:05:50.559Z,7.30
2018-05-03T03:10:42.119Z,7.30
2018-05-03T03:15:33.709Z,7.30
2018-05-03T03:25:45.242Z,7.30
2018-05-03T03:30:36.227Z,7.10
2018-05-03T03:40:38.747Z,6.90
2018-05-03T03:45:11.938Z,6.80
2018-05-03T03:49:45.122Z,6.80
2018-05-03T03:54:18.301Z,6.80
2018-05-03T03:58:51.482Z,6.80
2018-05-03T04:03:25.402Z,6.80
2018-05-03T04:07:59.359Z,6.70
2018-05-03T04:12:32.563Z,6.70
2018-05-03T04:17:05.758Z,6.70
2018-05-03T04:21:50.946Z,6.50
2018-05-03T04:26:24.134Z,6.40
2018-05-03T04:30:58.053Z,6.30
2018-05-03T04:35:32.018Z,6.30
2018-05-03T04:40:05.326Z,6.20
2018-05-03T04:44:38.512Z,6.30
2018-05-03T04:49:12.455Z,6.40
2018-05-03T04:53:45.772Z,6.30
2018-05-03T04:58:18.947Z,6.40
2018-05-03T05:02:52.890Z,6.60
2018-05-03T05:07:26.106Z,6.60
2018-05-03T05:11:59.273Z,6.70
2018-05-03T05:16:33.235Z,6.80
2018-05-03T05:21:06.418Z,6.80
2018-05-03T05:25:39.611Z,6.90
2018-05-03T05:30:13.533Z,7.20
2018-05-03T05:34:47.486Z,7.30
2018-05-03T05:44:00.251Z,7.50
2018-05-03T05:48:33.513Z,7.60
2018-05-03T05:53:06.697Z,7.70
2018-05-03T05:57:39.885Z,7.80
2018-05-03T06:02:13.060Z,7.90
2018-05-03T06:06:46.624Z,8.10
2018-05-03T06:11:19.821Z,8.30
2018-05-03T06:15:53.019Z,8.50
2018-05-03T06:20:26.211Z,8.70
2018-05-03T06:24:59.413Z,9.00
2018-05-03T06:29:32.589Z,9.40
2018-05-03T06:34:05.798Z,9.80
2018-05-03T06:38:39.774Z,10.90
2018-05-03T06:43:12.962Z,10.80
2018-05-03T06:47:46.201Z,11.40
2018-05-03T06:52:19.430Z,12.00
2018-05-03T06:56:52.607Z,12.30
2018-05-03T07:01:25.811Z,12.40
2018-05-03T07:05:58.983Z,12.70
2018-05-03T07:10:32.374Z,13.30
2018-05-03T07:15:06.331Z,14.50
2018-05-03T07:19:39.525Z,14.40
2018-05-03T07:24:12.716Z,14.60
2018-05-03T07:28:46.667Z,15.30
2018-05-03T07:33:19.858Z,15.20
2018-05-03T07:37:53.240Z,15.50
2018-05-03T07:42:26.261Z,16.00
2018-05-03T07:47:00.272Z,17.20
2018-05-03T07:51:34.227Z,17.60
2018-05-03T07:56:07.431Z,17.50
2018-05-03T08:00:40.650Z,17.80
2018-05-03T08:05:13.818Z,18.20
2018-05-03T08:09:47.770Z,20.40
2018-05-03T08:14:20.963Z,20.30
2018-05-03T08:18:54.934Z,21.90
2018-05-03T08:23:28.186Z,21.80
2018-05-03T08:28:01.426Z,23.10
2018-05-03T08:32:34.609Z,24.30
2018-05-03T08:37:08.579Z,24.80
2018-05-03T08:41:41.779Z,24.70
2018-05-03T08:46:15.036Z,23.40
2018-05-03T08:50:48.986Z,23.70
2018-05-03T08:55:22.173Z,23.60
2018-05-03T08:59:56.126Z,21.30
2018-05-03T09:04:29.315Z,21.20
2018-05-03T09:09:03.034Z,20.00
2018-05-03T09:13:37.048Z,18.20
2018-05-03T09:18:10.302Z,18.10
2018-05-03T09:22:43.487Z,17.70
2018-05-03T09:27:16.682Z,17.50
2018-05-03T09:31:49.841Z,17.60
2018-05-03T09:36:23.078Z,17.80
2018-05-03T09:40:57.028Z,18.60
2018-05-03T09:45:30.210Z,18.60
2018-05-03T09:50:04.194Z,20.60
2018-05-03T09:54:37.358Z,20.50
2018-05-03T09:59:10.565Z,22.50
2018-05-03T10:03:43.757Z,23.30
2018-05-03T10:08:17.744Z,21.40
2018-05-03T10:12:50.921Z,21.40
2018-05-03T10:17:24.105Z,20.80
2018-05-03T10:21:57.291Z,20.20
2018-05-03T10:26:31.250Z,18.90
2018-05-03T10:31:04.433Z,18.80
2018-05-03T10:35:38.458Z,18.90
2018-05-03T10:40:11.573Z,18.80
2018-05-03T10:44:44.755Z,19.30
2018-05-03T10:49:17.941Z,19.30
2018-05-03T10:53:51.126Z,19.10
2018-05-03T10:58:24.322Z,18.60
2018-05-03T11:02:57.485Z,18.20
2018-05-03T11:07:31.467Z,17.90
2018-05-03T11:12:04.654Z,17.90
2018-05-03T11:16:37.903Z,18.20
2018-05-03T11:21:11.350Z,18.60
2018-05-03T11:25:44.546Z,19.20
2018-05-03T11:30:18.495Z,23.20
2018-05-03T11:34:51.684Z,23.10
2018-05-03T11:39:25.703Z,21.50
2018-05-03T11:43:59.645Z,20.30
2018-05-03T11:48:32.830Z,20.20
2018-05-03T11:53:07.391Z,19.70
2018-05-03T11:57:40.613Z,19.40
2018-05-03T12:02:13.839Z,19.00
2018-05-03T12:06:47.026Z,19.80
2018-05-03T12:11:20.214Z,22.00
2018-05-03T12:15:53.414Z,24.30
2018-05-03T12:20:27.406Z,22.80
2018-05-03T12:25:00.597Z,22.80
2018-05-03T12:29:33.838Z,21.30
2018-05-03T12:34:07.029Z,20.30
2018-05-03T12:38:40.999Z,20.00
2018-05-03T12:43:14.186Z,19.90
2018-05-03T12:47:48.143Z,20.90
2018-05-03T12:52:21.333Z,20.80
2018-05-03T12:56:54.527Z,21.70
2018-05-03T13:01:28.478Z,22.00
2018-05-03T13:06:01.681Z,21.90
2018-05-03T13:10:34.949Z,21.00
2018-05-03T13:15:08.144Z,19.90
2018-05-03T13:19:49.066Z,19.20
2018-05-03T13:24:24.192Z,18.70
2018-05-03T13:28:57.454Z,18.70
2018-05-03T13:33:30.618Z,18.80
2018-05-03T13:38:04.547Z,19.20
2018-05-03T13:42:39.444Z,19.40
2018-05-03T13:47:12.627Z,19.40
2018-05-03T13:51:45.830Z,19.60
2018-05-03T13:56:19.001Z,19.80
2018-05-03T14:00:52.985Z,20.20
2018-05-03T14:05:26.198Z,20.20
2018-05-03T14:09:59.353Z,20.20
2018-05-03T14:14:32.542Z,20.40
2018-05-03T14:19:06.489Z,20.90
2018-05-03T14:23:39.672Z,20.90
2018-05-03T14:28:12.853Z,21.00
2018-05-03T14:32:46.038Z,21.20
2018-05-03T14:37:19.246Z,21.40
2018-05-03T14:41:52.482Z,21.30
2018-05-03T14:46:25.676Z,20.80
2018-05-03T14:50:58.859Z,20.80
2018-05-03T14:55:32.102Z,20.80
2018-05-03T15:00:05.319Z,21.00
2018-05-03T15:04:38.510Z,21.20
2018-05-03T15:09:11.690Z,21.30
2018-05-03T15:13:45.086Z,21.40
2018-05-03T15:18:18.307Z,21.50
2018-05-03T15:22:51.468Z,21.20
2018-05-03T15:27:25.418Z,20.30
2018-05-03T15:31:58.599Z,20.20
2018-05-03T15:36:32.559Z,20.20
2018-05-03T15:41:05.752Z,20.10
2018-05-03T15:45:39.098Z,20.10
2018-05-03T15:50:12.304Z,19.80
2018-05-03T15:54:45.543Z,19.50
2018-05-03T15:59:18.876Z,19.20
2018-05-03T16:03:52.826Z,18.70
2018-05-03T16:08:26.192Z,18.60
2018-05-03T16:13:00.453Z,19.10
2018-05-03T16:17:33.633Z,19.10
2018-05-03T16:22:07.673Z,19.90
2018-05-03T16:26:41.622Z,20.10
2018-05-03T16:31:15.634Z,20.00
2018-05-03T16:35:48.920Z,20.10
2018-05-03T16:40:22.966Z,20.00
2018-05-03T16:44:56.118Z,19.90
2018-05-03T16:49:29.302Z,19.80
2018-05-03T16:54:02.563Z,19.50
2018-05-03T16:58:36.513Z,19.20
2018-05-03T17:03:09.794Z,19.20
2018-05-03T17:07:43.842Z,18.80
2018-05-03T17:12:17.020Z,18.80
2018-05-03T17:16:50.456Z,18.70
2018-05-03T17:21:24.456Z,18.40
2018-05-03T17:25:57.592Z,18.30
2018-05-03T17:30:30.779Z,18.20
2018-05-03T17:35:04.734Z,17.90
2018-05-03T17:39:37.926Z,17.80
2018-05-03T17:44:11.120Z,17.70
2018-05-03T17:48:45.074Z,17.60
2018-05-03T17:53:18.256Z,17.50
2018-05-03T17:57:52.182Z,17.40
2018-05-03T18:02:26.147Z,17.30
2018-05-03T18:06:59.450Z,17.20
2018-05-03T18:11:32.616Z,17.20
2018-05-03T18:16:05.839Z,17.00
2018-05-03T18:20:39.063Z,16.90
2018-05-03T18:25:12.418Z,16.80
2018-05-03T18:29:45.612Z,16.60
2018-05-03T18:34:18.813Z,16.40
2018-05-03T18:38:52.175Z,16.30
2018-05-03T18:43:25.686Z,16.20
2018-05-03T18:47:58.886Z,16.00
2018-05-03T18:52:33.121Z,15.90
2018-05-03T18:57:07.075Z,15.70
2018-05-03T19:01:40.270Z,15.60
2018-05-03T19:06:13.494Z,15.50
2018-05-03T19:10:46.700Z,15.40
2018-05-03T19:15:19.877Z,15.30
2018-05-03T19:19:53.066Z,15.20
2018-05-03T19:24:27.021Z,14.90
2018-05-03T19:29:01.047Z,14.80
2018-05-03T19:33:34.248Z,14.80
2018-05-03T19:38:07.411Z,14.70
2018-05-03T19:42:40.597Z,14.50
2018-05-03T19:47:13.783Z,14.40
2018-05-03T19:51:47.054Z,14.30
2018-05-03T19:56:20.994Z,14.20
2018-05-03T20:00:54.274Z,14.10
2018-05-03T20:05:27.473Z,14.10
2018-05-03T20:10:01.482Z,13.90
2018-05-03T20:14:34.791Z,13.90
2018-05-03T20:19:08.135Z,13.80
2018-05-03T20:23:42.459Z,13.70
2018-05-03T20:28:16.141Z,13.60
2018-05-03T20:32:49.517Z,13.50
2018-05-03T20:37:22.644Z,13.40
2018-05-03T20:41:56.493Z,13.40
2018-05-03T20:46:29.758Z,13.30
2018-05-03T20:51:03.001Z,13.20
2018-05-03T20:55:37.641Z,13.20
2018-05-03T21:00:10.828Z,13.20
2018-05-03T21:04:44.205Z,13.10
2018-05-03T21:09:18.153Z,12.90
2018-05-03T21:13:51.341Z,12.90
2018-05-03T21:18:24.541Z,12.90
2018-05-03T21:22:58.536Z,12.70
2018-05-03T21:27:31.722Z,12.60
2018-05-03T21:32:04.963Z,12.60
2018-05-03T21:36:39.986Z,12.40
2018-05-03T21:41:13.145Z,12.40
2018-05-03T21:45:46.441Z,12.40
2018-05-03T21:50:21.344Z,12.40
2018-05-03T21:54:54.525Z,12.30
2018-05-03T21:59:28.578Z,12.40
2018-05-03T22:04:01.765Z,12.40
2018-05-03T22:08:36.073Z,12.30
2018-05-03T22:13:09.229Z,12.20
2018-05-03T22:17:42.413Z,12.10
2018-05-03T22:22:15.684Z,12.00
2018-05-03T22:26:48.873Z,11.90
2018-05-03T22:31:23.683Z,11.60
2018-05-03T22:35:57.024Z,11.50
2018-05-03T22:40:30.255Z,11.40
2018-05-03T22:45:03.446Z,11.20
2018-05-03T22:49:37.673Z,11.00
2018-05-03T22:54:12.333Z,11.00
2018-05-03T22:58:45.587Z,10.90
2018-05-03T23:03:18.907Z,10.90
2018-05-03T23:07:52.205Z,10.80
2018-05-03T23:12:26.193Z,10.40
2018-05-03T23:16:59.394Z,10.30
2018-05-03T23:21:32.666Z,10.30
2018-05-03T23:26:05.859Z,10.20
2018-05-03T23:30:39.050Z,10.10
2018-05-03T23:35:12.238Z,10.10
2018-05-03T23:39:45.433Z,10.00
2018-05-03T23:44:18.634Z,9.90
2018-05-03T23:48:51.941Z,9.70
2018-05-03T23:53:25.142Z,9.50
2018-05-03T23:58:02.742Z,9.30
